Time;durP1;ratioP1;P1;durP2;ratioP2;P2;SDS_P1;SDS_P2;PMS_P1;PMS_P2;Temp;Humidity;BMP_temperature;BMP_pressure;BME280_temperature;BME280_humidity;BME280_pressure;Samples;Min_cycle;Max_cycle;Signal;HPM_P1;HPM_P2
2021/07/30 00:00:57;;;;;;;0.40;0.00;;;;;;;22.00;51.26;99868.17;125992;1092;114312;-70
2021/07/30 00:03:24;;;;;;;0.40;0.10;;;;;;;22.03;51.02;99861.64;126133;1093;103119;-70
2021/07/30 00:05:52;;;;;;;0.40;0.00;;;;;;;22.05;51.80;99871.38;126130;1092;102920;-69
2021/07/30 00:08:20;;;;;;;0.40;0.00;;;;;;;22.08;50.64;99866.70;125977;1093;113968;-70
2021/07/30 00:10:47;;;;;;;0.40;0.00;;;;;;;22.11;51.07;99858.30;126102;1092;103031;-70
2021/07/30 00:13:14;;;;;;;0.40;0.00;;;;;;;22.14;50.11;99864.33;126261;1096;114141;-70
2021/07/30 00:15:41;;;;;;;0.40;0.00;;;;;;;22.14;50.36;99858.03;126153;1093;102881;-70
2021/07/30 00:18:09;;;;;;;0.40;0.00;;;;;;;22.18;50.08;99854.09;126107;1095;102885;-70
2021/07/30 00:20:36;;;;;;;0.40;0.00;;;;;;;22.17;50.12;99858.64;126018;1093;114041;-70
2021/07/30 00:23:03;;;;;;;0.40;0.00;;;;;;;22.21;49.87;99857.39;126181;1093;104427;-70
2021/07/30 00:25:31;;;;;;;0.40;0.00;;;;;;;22.21;51.37;99848.41;126001;1096;114153;-70
2021/07/30 00:27:58;;;;;;;0.40;0.00;;;;;;;22.26;49.97;99851.59;126150;1093;102973;-70
2021/07/30 00:30:25;;;;;;;0.40;0.00;;;;;;;22.28;50.49;99857.73;126148;1093;103026;-71
2021/07/30 00:32:52;;;;;;;0.40;0.00;;;;;;;22.33;50.75;99858.22;126027;1095;114423;-70
2021/07/30 00:35:19;;;;;;;0.40;0.00;;;;;;;22.33;50.20;99857.36;126206;1093;102959;-70
2021/07/30 00:37:46;;;;;;;0.40;0.00;;;;;;;22.32;50.03;99863.77;126034;1095;114153;-70
2021/07/30 00:40:13;;;;;;;0.40;0.00;;;;;;;22.37;50.62;99869.70;126109;1093;103052;-70
2021/07/30 00:42:50;;;;;;;0.40;0.00;;;;;;;;;;126105;1095;102978;-70
2021/07/30 00:45:19;;;;;;;0.40;0.00;;;;;;;22.40;50.31;99871.30;126069;1092;102881;-70
2021/07/30 00:47:48;;;;;;;0.40;0.00;;;;;;;22.41;50.31;99865.74;126070;1092;102957;-70
2021/07/30 00:50:16;;;;;;;0.40;0.00;;;;;;;22.45;49.93;99866.35;126010;1091;113865;-70
2021/07/30 00:52:43;;;;;;;0.40;0.00;;;;;;;22.42;50.83;99848.48;126139;1092;103003;-69
2021/07/30 00:55:12;;;;;;;0.40;0.00;;;;;;;22.44;50.47;99853.77;126063;1093;113126;-69
2021/07/30 00:57:40;;;;;;;0.40;0.00;;;;;;;22.46;49.89;99849.94;126096;1093;102911;-70
2021/07/30 01:00:08;;;;;;;0.40;0.00;;;;;;;22.45;50.12;99858.22;126128;1092;102956;-72
2021/07/30 01:02:35;;;;;;;0.40;0.00;;;;;;;22.46;49.70;99854.48;126019;1091;113990;-70
2021/07/30 01:05:04;;;;;;;0.40;0.00;;;;;;;22.46;49.56;99852.65;126121;1096;103053;-70
2021/07/30 01:07:32;;;;;;;0.40;0.00;;;;;;;22.43;49.99;99849.33;125914;1095;114093;-73
2021/07/30 01:10:00;;;;;;;0.40;0.05;;;;;;;22.41;50.56;99849.46;126121;1092;103025;-72
2021/07/30 01:12:28;;;;;;;0.40;0.00;;;;;;;22.43;49.92;99843.90;126088;1093;102901;-70
2021/07/30 01:14:57;;;;;;;0.40;0.00;;;;;;;22.41;49.94;99844.03;126015;1093;112881;-71
2021/07/30 01:17:25;;;;;;;0.40;0.00;;;;;;;22.42;49.67;99837.63;126082;1093;103023;-71
2021/07/30 01:19:53;;;;;;;0.40;0.00;;;;;;;22.40;50.77;99844.17;126067;1096;113958;-72
2021/07/30 01:22:27;;;;;;;0.40;0.00;;;;;;;22.39;50.04;99835.15;126103;1093;102882;-72
2021/07/30 01:24:55;;;;;;;0.40;0.00;;;;;;;22.39;50.22;99835.15;126088;1092;113432;-72
2021/07/30 01:27:22;;;;;;;0.40;0.00;;;;;;;22.36;50.10;99836.27;126076;1092;102872;-72
2021/07/30 01:29:51;;;;;;;0.40;0.00;;;;;;;22.36;50.37;99835.42;126202;1093;103002;-72
2021/07/30 01:32:19;;;;;;;0.40;0.00;;;;;;;22.38;50.56;99837.02;126014;1092;114421;-70
2021/07/30 01:34:48;;;;;;;0.40;0.00;;;;;;;22.43;50.50;99843.90;126169;1094;102966;-70
2021/07/30 01:37:15;;;;;;;0.40;0.00;;;;;;;22.43;50.71;99843.90;126024;1092;113211;-70
2021/07/30 01:39:42;;;;;;;0.40;0.00;;;;;;;22.44;51.21;99843.77;126145;1093;103065;-70
2021/07/30 01:42:09;;;;;;;0.40;0.00;;;;;;;22.38;51.50;99839.73;126057;1092;103567;-71
2021/07/30 01:44:36;;;;;;;0.40;0.00;;;;;;;22.38;51.78;99842.44;126054;1093;114292;-70
2021/07/30 01:47:04;;;;;;;0.40;0.00;;;;;;;22.41;51.28;99833.18;126083;1093;102894;-70
2021/07/30 01:49:31;;;;;;;0.40;0.00;;;;;;;22.43;52.86;99835.76;125978;1093;114614;-70
2021/07/30 01:51:58;;;;;;;0.40;0.00;;;;;;;22.48;51.82;99839.80;126108;1093;102911;-70
2021/07/30 01:54:25;;;;;;;0.40;0.00;;;;;;;22.54;51.30;99844.70;126137;1093;102871;-70
2021/07/30 01:56:52;;;;;;;0.40;0.00;;;;;;;22.54;52.01;99849.29;125998;1092;113944;-71
2021/07/30 01:59:20;;;;;;;0.40;0.00;;;;;;;22.52;52.66;99843.97;126230;1093;102905;-70
2021/07/30 02:01:47;;;;;;;0.40;0.00;;;;;;;22.51;52.18;99844.98;126020;1093;113915;-71
2021/07/30 02:04:14;;;;;;;0.40;0.00;;;;;;;22.48;52.44;99847.94;126083;1093;103018;-70
2021/07/30 02:06:43;;;;;;;0.40;0.00;;;;;;;22.44;51.87;99835.63;126115;1093;103036;-70
2021/07/30 02:09:10;;;;;;;0.40;0.00;;;;;;;22.38;52.09;99828.88;126051;1093;113727;-71
2021/07/30 02:11:41;;;;;;;0.40;0.00;;;;;;;22.34;52.61;99838.23;126113;1092;103023;-70
2021/07/30 02:14:15;;;;;;;0.40;0.00;;;;;;;22.28;51.97;99833.32;126186;1093;113953;-70
2021/07/30 02:16:47;;;;;;;0.40;0.00;;;;;;;22.25;52.22;99836.30;126103;1093;103191;-70
2021/07/30 02:19:19;;;;;;;0.40;0.00;;;;;;;22.18;51.79;99837.83;126014;1093;114389;-73
2021/07/30 02:21:47;;;;;;;0.40;0.00;;;;;;;22.07;52.97;99840.56;126087;1092;102909;-73
2021/07/30 02:24:15;;;;;;;0.40;0.00;;;;;;;21.99;52.75;99843.91;126138;1092;103025;-69
2021/07/30 02:26:42;;;;;;;0.40;0.00;;;;;;;21.92;54.21;99850.84;125984;1092;113982;-72
2021/07/30 02:29:09;;;;;;;0.40;0.00;;;;;;;21.89;54.40;99843.81;126169;1093;103765;-71
2021/07/30 02:31:37;;;;;;;0.40;0.10;;;;;;;21.89;53.74;99843.81;125990;1093;115406;-72
2021/07/30 02:34:04;;;;;;;0.40;0.10;;;;;;;21.81;54.15;99844.45;126175;1094;103026;-72
2021/07/30 02:36:31;;;;;;;0.40;0.00;;;;;;;21.74;53.74;99839.65;126149;1093;102990;-72
2021/07/30 02:38:59;;;;;;;0.40;0.00;;;;;;;21.74;54.19;99839.65;126041;1093;114037;-70
2021/07/30 02:41:26;;;;;;;0.40;0.00;;;;;;;21.84;54.72;99846.05;126077;1092;103032;-70
2021/07/30 02:43:53;;;;;;;0.40;0.00;;;;;;;21.88;54.65;99839.38;126092;1092;113984;-70
2021/07/30 02:46:20;;;;;;;0.40;0.00;;;;;;;21.92;54.48;99848.13;126174;1092;102923;-70
2021/07/30 02:48:48;;;;;;;0.40;0.00;;;;;;;21.92;54.22;99848.13;126149;1095;103116;-70
2021/07/30 02:51:15;;;;;;;0.40;0.00;;;;;;;21.99;53.07;99854.75;126040;1093;114419;-70
2021/07/30 02:53:42;;;;;;;0.40;0.00;;;;;;;22.03;54.17;99848.96;126246;1096;102885;-70
2021/07/30 02:56:09;;;;;;;0.40;0.03;;;;;;;21.88;53.65;99847.51;126097;1093;115885;-70
2021/07/30 02:58:37;;;;;;;0.40;0.00;;;;;;;21.90;54.27;99844.67;126095;1092;102925;-70
2021/07/30 03:01:04;;;;;;;0.40;0.00;;;;;;;21.90;53.99;99833.83;126015;1092;113052;-70
2021/07/30 03:03:32;;;;;;;0.40;0.00;;;;;;;21.90;53.35;99841.95;126118;1094;102969;-70
2021/07/30 03:06:00;;;;;;;0.40;0.00;;;;;;;21.91;53.96;99841.83;126135;1093;103365;-70
2021/07/30 03:08:28;;;;;;;0.40;0.00;;;;;;;21.94;53.39;99841.59;126170;1093;113316;-72
2021/07/30 03:10:56;;;;;;;0.40;0.00;;;;;;;21.95;53.12;99854.16;126136;1093;102980;-72
2021/07/30 03:13:24;;;;;;;0.40;0.00;;;;;;;21.93;53.22;99856.13;126182;1096;114636;-72
2021/07/30 03:15:54;;;;;;;0.40;0.00;;;;;;;21.97;54.48;99859.45;126111;1093;103103;-72
2021/07/30 03:18:22;;;;;;;0.40;0.00;;;;;;;21.98;54.52;99853.91;126187;1093;102865;-72
2021/07/30 03:20:49;;;;;;;0.40;0.00;;;;;;;21.92;53.65;99842.70;126000;1093;112824;-72
2021/07/30 03:23:17;;;;;;;0.40;0.00;;;;;;;21.90;53.72;99842.84;126119;1092;102988;-72
2021/07/30 03:25:44;;;;;;;0.40;0.00;;;;;;;21.92;53.71;99848.13;126018;1093;113928;-72
2021/07/30 03:28:11;;;;;;;0.40;0.00;;;;;;;21.90;53.41;99859.11;126129;1093;102969;-72
2021/07/30 03:30:38;;;;;;;0.40;0.00;;;;;;;21.81;53.33;99858.00;126110;1093;102919;-72
2021/07/30 03:33:05;;;;;;;0.40;0.00;;;;;;;21.77;53.96;99852.97;126007;1094;114157;-72
2021/07/30 03:35:33;;;;;;;0.40;0.00;;;;;;;21.75;55.15;99844.09;126109;1096;102910;-72
2021/07/30 03:38:00;;;;;;;0.40;0.00;;;;;;;21.74;53.61;99848.66;126051;1092;112943;-72
2021/07/30 03:40:27;;;;;;;0.40;0.00;;;;;;;21.73;54.11;99852.35;126126;1093;103034;-72
2021/07/30 03:42:54;;;;;;;0.40;0.00;;;;;;;21.77;54.03;99850.27;126204;1092;103016;-72
2021/07/30 03:45:21;;;;;;;0.40;0.00;;;;;;;21.77;53.90;99852.97;126070;1092;113619;-72
2021/07/30 03:47:49;;;;;;;0.40;0.00;;;;;;;21.81;53.30;99851.73;126112;1092;102888;-72
2021/07/30 03:50:16;;;;;;;0.40;0.00;;;;;;;21.79;53.80;99851.86;126066;1093;114021;-70
2021/07/30 03:52:44;;;;;;;0.40;0.00;;;;;;;21.78;53.11;99858.27;126159;1091;102708;-70
2021/07/30 03:55:11;;;;;;;0.40;0.00;;;;;;;21.80;53.24;99848.14;126001;1092;114140;-70
2021/07/30 03:57:38;;;;;;;0.40;0.10;;;;;;;21.84;53.25;99852.31;126154;1096;102914;-70
2021/07/30 04:00:06;;;;;;;0.40;0.00;;;;;;;21.89;51.85;99851.95;126153;1094;103859;-71
2021/07/30 04:02:33;;;;;;;0.40;0.00;;;;;;;21.94;52.77;99848.84;126092;1093;112988;-71
2021/07/30 04:05:02;;;;;;;0.40;0.00;;;;;;;21.99;51.96;99863.77;126107;1093;102904;-71
2021/07/30 04:07:29;;;;;;;0.40;0.00;;;;;;;22.00;52.46;99861.91;126037;1096;113039;-71
2021/07/30 04:09:57;;;;;;;0.40;0.00;;;;;;;21.98;52.75;99862.03;126167;1092;102889;-71
2021/07/30 04:12:25;;;;;;;0.40;0.00;;;;;;;21.99;51.76;99866.48;126165;1092;103307;-71
2021/07/30 04:14:52;;;;;;;0.40;0.00;;;;;;;22.01;52.66;99866.34;125955;1095;114170;-71
2021/07/30 04:17:19;;;;;;;0.40;0.00;;;;;;;22.05;54.22;99875.95;126087;1092;102903;-70
2021/07/30 04:19:46;;;;;;;0.40;0.00;;;;;;;22.01;51.04;99869.06;126064;1092;114050;-70
2021/07/30 04:22:14;;;;;;;0.40;0.00;;;;;;;22.04;51.79;99874.22;126145;1093;102887;-70
2021/07/30 04:24:41;;;;;;;0.40;0.00;;;;;;;22.04;52.05;99880.48;126121;1093;103065;-70
2021/07/30 04:27:08;;;;;;;0.40;0.00;;;;;;;22.04;53.55;99868.80;126026;1093;113045;-70
2021/07/30 04:29:42;;;;;;;0.40;0.00;;;;;;;21.97;51.43;99868.44;126156;1093;102877;-70
2021/07/30 04:32:11;;;;;;;0.40;0.00;;;;;;;21.97;52.07;99856.75;126078;1092;114000;-69
2021/07/30 04:34:40;;;;;;;0.40;0.00;;;;;;;21.91;51.21;99857.24;126209;1092;102932;-71
2021/07/30 04:37:08;;;;;;;0.40;0.00;;;;;;;21.95;51.65;99856.00;126018;1095;114654;-70
2021/07/30 04:39:36;;;;;;;0.40;0.00;;;;;;;21.93;50.75;99863.41;126148;1093;102972;-70
2021/07/30 04:42:04;;;;;;;0.40;0.00;;;;;;;21.95;51.08;99864.13;126167;1096;102995;-70
2021/07/30 04:44:32;;;;;;;0.40;0.00;;;;;;;21.94;50.75;99863.28;126306;1093;113911;-70
2021/07/30 04:47:00;;;;;;;0.40;0.00;;;;;;;21.94;51.03;99867.83;126216;1095;102999;-70
2021/07/30 04:49:27;;;;;;;0.40;0.00;;;;;;;21.91;50.83;99868.94;126059;1093;114211;-71
2021/07/30 04:52:00;;;;;;;0.40;0.00;;;;;;;21.90;51.26;99864.53;126142;1093;102877;-70
2021/07/30 04:54:28;;;;;;;0.40;0.00;;;;;;;21.90;51.26;99869.06;126195;1093;103001;-70
2021/07/30 04:56:55;;;;;;;0.40;0.00;;;;;;;21.96;51.30;99871.28;126017;1092;114129;-70
2021/07/30 04:59:23;;;;;;;0.40;0.10;;;;;;;22.00;50.80;99868.17;126173;1092;102994;-71
2021/07/30 05:01:50;;;;;;;0.40;0.00;;;;;;;22.05;50.41;99862.39;126010;1096;113918;-71
2021/07/30 05:04:19;;;;;;;0.40;0.00;;;;;;;22.12;50.72;99865.45;126116;1095;103393;-71
2021/07/30 05:06:47;;;;;;;0.40;0.00;;;;;;;22.16;50.61;99856.91;126112;1093;102902;-71
2021/07/30 05:09:14;;;;;;;0.40;0.00;;;;;;;22.20;50.40;99852.95;126070;1093;113980;-71
2021/07/30 05:11:41;;;;;;;0.40;0.00;;;;;;;22.23;50.97;99859.13;126131;1093;103427;-71
2021/07/30 05:14:09;;;;;;;0.40;0.10;;;;;;;22.30;50.69;99852.17;125991;1095;114097;-71
2021/07/30 05:16:36;;;;;;;0.40;0.00;;;;;;;22.36;50.17;99854.41;126123;1093;103036;-71
2021/07/30 05:19:03;;;;;;;0.40;0.00;;;;;;;22.44;49.72;99854.62;126055;1093;113589;-70
2021/07/30 05:21:30;;;;;;;0.40;0.00;;;;;;;22.45;49.96;99861.77;126112;1093;103023;-69
2021/07/30 05:23:58;;;;;;;0.40;0.00;;;;;;;22.49;49.05;99867.81;126139;1092;102958;-70
2021/07/30 05:26:25;;;;;;;0.40;0.00;;;;;;;22.49;48.98;99860.52;126028;1092;113999;-70
2021/07/30 05:28:53;;;;;;;0.40;0.00;;;;;;;22.52;49.20;99853.97;126136;1092;102906;-70
2021/07/30 05:31:20;;;;;;;0.40;0.00;;;;;;;22.57;49.52;99859.02;126056;1093;114133;-71
2021/07/30 05:33:47;;;;;;;0.40;0.00;;;;;;;22.68;49.44;99853.52;126117;1093;102912;-70
2021/07/30 05:36:16;;;;;;;0.40;0.00;;;;;;;22.81;50.41;99851.47;126083;1093;103034;-69
2021/07/30 05:38:43;;;;;;;0.40;0.00;;;;;;;22.83;49.15;99852.20;126099;1093;114160;-76
2021/07/30 05:41:15;;;;;;;0.40;0.00;;;;;;;22.76;48.56;99858.30;126095;1092;103015;-70
2021/07/30 05:43:43;;;;;;;0.40;0.00;;;;;;;22.70;48.63;99856.98;126034;1093;114108;-71
2021/07/30 05:46:14;;;;;;;0.40;0.00;;;;;;;22.79;48.93;99858.02;126067;1095;103034;-71
2021/07/30 05:48:42;;;;;;;0.40;0.00;;;;;;;22.86;48.36;99854.64;126293;1093;102914;-71
2021/07/30 05:51:10;;;;;;;0.40;0.00;;;;;;;22.90;48.18;99857.97;126040;1093;113931;-71
2021/07/30 05:53:38;;;;;;;0.40;0.00;;;;;;;22.94;48.51;99853.98;126194;1093;102900;-71
2021/07/30 05:56:05;;;;;;;0.40;0.00;;;;;;;23.00;48.18;99863.44;126155;1096;113965;-71
2021/07/30 05:58:33;;;;;;;0.40;0.00;;;;;;;23.07;47.98;99861.90;126137;1093;102951;-71
2021/07/30 06:01:00;;;;;;;0.40;0.00;;;;;;;23.16;48.36;99854.84;126088;1093;113216;-70
2021/07/30 06:03:28;;;;;;;0.40;0.00;;;;;;;23.21;48.26;99863.45;126229;1093;103098;-71
2021/07/30 06:05:55;;;;;;;0.40;0.00;;;;;;;23.19;47.28;99866.31;126072;1093;103017;-70
2021/07/30 06:08:22;;;;;;;0.40;0.00;;;;;;;23.25;48.57;99869.48;126093;1092;114127;-71
2021/07/30 06:10:49;;;;;;;0.40;0.00;;;;;;;23.24;47.55;99874.04;126107;1092;102988;-71
2021/07/30 06:13:17;;;;;;;0.40;0.00;;;;;;;23.31;47.91;99864.38;126053;1092;114173;-71
2021/07/30 06:15:44;;;;;;;0.40;0.00;;;;;;;23.34;47.75;99866.80;126092;1095;103048;-71
2021/07/30 06:18:11;;;;;;;0.40;0.00;;;;;;;23.43;47.38;99867.86;126181;1092;103154;-71
2021/07/30 06:20:38;;;;;;;0.40;0.00;;;;;;;23.49;48.67;99872.72;126013;1093;113950;-71
2021/07/30 06:23:05;;;;;;;0.40;0.00;;;;;;;23.54;48.81;99869.61;126266;1094;103125;-71
2021/07/30 06:25:33;;;;;;;0.40;0.00;;;;;;;23.58;48.03;99870.17;126027;1093;114443;-71
2021/07/30 06:28:01;;;;;;;0.40;0.00;;;;;;;23.71;48.08;99868.95;126301;1095;102850;-71
2021/07/30 06:30:29;;;;;;;0.40;0.00;;;;;;;23.83;47.86;99876.98;126164;1093;102919;-71
2021/07/30 06:32:56;;;;;;;0.40;0.00;;;;;;;23.86;48.25;99872.13;126108;1092;113953;-71
2021/07/30 06:35:25;;;;;;;0.40;0.00;;;;;;;23.88;47.62;99869.27;126100;1092;102908;-71
2021/07/30 06:37:52;;;;;;;0.40;0.00;;;;;;;23.89;47.49;99871.03;126118;1093;113926;-71
2021/07/30 06:40:20;;;;;;;0.40;0.00;;;;;;;23.92;47.35;99878.90;126214;1093;102980;-71
2021/07/30 06:42:47;;;;;;;0.40;0.00;;;;;;;24.05;46.98;99875.93;126148;1093;102902;-71
2021/07/30 06:45:14;;;;;;;0.40;0.00;;;;;;;24.12;47.83;99870.78;125995;1093;115371;-70
2021/07/30 06:47:41;;;;;;;0.40;0.00;;;;;;;24.10;46.50;99870.05;126202;1095;103016;-71
2021/07/30 06:50:09;;;;;;;0.40;0.00;;;;;;;24.10;47.21;99868.21;126061;1093;113993;-71
2021/07/30 06:52:36;;;;;;;0.40;0.00;;;;;;;24.18;46.64;99864.79;126166;1093;102916;-71
2021/07/30 06:55:04;;;;;;;0.40;0.00;;;;;;;24.24;46.52;99869.64;126015;1093;114133;-71
2021/07/30 06:57:31;;;;;;;0.40;0.00;;;;;;;24.28;46.39;99862.91;126162;1095;103119;-71
2021/07/30 06:59:59;;;;;;;0.40;0.00;;;;;;;24.27;46.03;99866.66;126114;1095;103013;-70
2021/07/30 07:02:26;;;;;;;0.40;0.00;;;;;;;24.24;45.94;99861.48;126037;1093;114182;-71
2021/07/30 07:04:53;;;;;;;0.40;0.00;;;;;;;24.35;46.51;99861.36;126113;1094;102867;-71
2021/07/30 07:07:21;;;;;;;0.40;0.00;;;;;;;24.39;45.21;99861.91;126077;1093;114108;-71
2021/07/30 07:09:52;;;;;;;0.40;0.00;;;;;;;24.38;45.09;99857.50;126172;1092;102999;-70
2021/07/30 07:12:19;;;;;;;0.40;0.00;;;;;;;24.38;44.75;99858.34;126259;1092;103096;-71
2021/07/30 07:14:46;;;;;;;0.40;0.00;;;;;;;24.45;45.55;99865.95;126028;1093;113869;-71
2021/07/30 07:17:15;;;;;;;0.40;0.00;;;;;;;24.49;46.84;99860.05;126172;1094;103032;-71
2021/07/30 07:19:43;;;;;;;0.40;0.00;;;;;;;24.54;46.28;99859.64;126068;1093;114193;-71
2021/07/30 07:22:11;;;;;;;0.40;0.00;;;;;;;24.58;45.79;99857.47;126104;1095;102879;-72
2021/07/30 07:24:39;;;;;;;0.40;0.00;;;;;;;24.75;45.39;99864.08;126047;1093;102908;-72
2021/07/30 07:27:07;;;;;;;0.40;0.00;;;;;;;24.81;45.02;99858.06;126009;1093;114333;-71
2021/07/30 07:29:34;;;;;;;0.40;0.00;;;;;;;24.91;45.15;99855.31;126097;1093;103030;-71
2021/07/30 07:32:02;;;;;;;0.40;0.00;;;;;;;24.97;44.90;99858.30;125950;1096;114016;-72
2021/07/30 07:34:29;;;;;;;0.40;0.00;;;;;;;24.94;43.22;99849.56;126087;1093;103051;-72
2021/07/30 07:36:56;;;;;;;0.40;0.00;;;;;;;24.91;42.61;99852.59;126167;1092;103275;-72
2021/07/30 07:39:24;;;;;;;0.40;0.00;;;;;;;24.89;42.82;99849.17;125977;1093;113807;-72
2021/07/30 07:41:51;;;;;;;0.40;0.00;;;;;;;24.92;42.27;99852.44;126053;1093;102894;-74
2021/07/30 07:44:18;;;;;;;0.40;0.00;;;;;;;24.99;42.53;99850.86;125913;1092;114022;-74
2021/07/30 07:46:47;;;;;;;0.40;0.00;;;;;;;25.08;42.33;99846.38;126109;1094;102957;-74
2021/07/30 07:49:15;;;;;;;0.40;0.00;;;;;;;25.10;42.31;99852.55;126043;1093;114174;-72
2021/07/30 07:51:42;;;;;;;0.40;0.00;;;;;;;25.10;42.81;99849.82;126097;1092;103017;-74
2021/07/30 07:54:09;;;;;;;0.40;0.00;;;;;;;25.14;41.73;99842.22;126013;1094;103392;-74
2021/07/30 07:56:39;;;;;;;0.40;0.00;;;;;;;25.17;41.14;99848.20;125905;1093;112910;-75
2021/07/30 07:59:07;;;;;;;0.40;0.00;;;;;;;25.24;41.11;99847.63;126018;1093;103248;-74
2021/07/30 08:01:34;;;;;;;0.40;0.00;;;;;;;25.40;41.41;99842.41;125921;1092;114089;-74
2021/07/30 08:04:02;;;;;;;0.40;0.00;;;;;;;25.46;40.67;99840.98;126040;1093;102879;-73
2021/07/30 08:06:29;;;;;;;0.40;0.00;;;;;;;25.42;40.24;99847.71;126122;1092;102900;-74
2021/07/30 08:08:56;;;;;;;0.40;0.00;;;;;;;25.39;39.99;99842.57;125971;1093;113992;-73
2021/07/30 08:11:23;;;;;;;0.40;0.00;;;;;;;25.46;40.61;99841.83;126101;1095;103390;-73
2021/07/30 08:13:50;;;;;;;0.40;0.00;;;;;;;25.60;40.33;99837.73;125962;1095;113972;-74
2021/07/30 08:16:23;;;;;;;0.40;0.00;;;;;;;25.76;39.87;99839.79;125895;1093;102972;-75
2021/07/30 08:18:50;;;;;;;0.40;0.00;;;;;;;25.86;38.48;99842.48;126275;1095;102901;-74
2021/07/30 08:21:17;;;;;;;0.40;0.00;;;;;;;25.97;39.11;99841.40;125971;1093;113758;-74
2021/07/30 08:23:44;;;;;;;0.40;0.00;;;;;;;26.11;39.99;99840.91;126033;1094;102948;-74
2021/07/30 08:26:12;;;;;;;0.40;0.00;;;;;;;26.31;39.36;99829.81;125898;1093;114574;-74
2021/07/30 08:28:39;;;;;;;0.40;0.00;;;;;;;26.38;39.11;99836.38;126125;1093;103005;-74
2021/07/30 08:31:06;;;;;;;0.40;0.00;;;;;;;26.46;38.52;99835.60;125980;1093;114099;-74
2021/07/30 08:33:35;;;;;;;0.40;0.00;;;;;;;26.56;37.84;99838.23;126074;1091;102904;-74
2021/07/30 08:36:02;;;;;;;0.40;0.00;;;;;;;26.62;38.70;99846.65;126051;1092;102892;-75
2021/07/30 08:38:30;;;;;;;0.40;0.00;;;;;;;26.71;37.74;99839.39;126039;1093;113854;-74
2021/07/30 08:40:57;;;;;;;0.40;0.00;;;;;;;26.77;37.77;99837.92;126115;1093;102908;-73
2021/07/30 08:43:24;;;;;;;0.40;0.00;;;;;;;26.75;37.32;99838.08;125953;1095;114214;-72
2021/07/30 08:45:51;;;;;;;0.40;0.00;;;;;;;26.85;37.28;99833.36;126078;1093;103017;-73
2021/07/30 08:48:19;;;;;;;0.40;0.00;;;;;;;26.88;37.08;99845.84;126123;1093;102878;-73
2021/07/30 08:50:47;;;;;;;0.40;0.00;;;;;;;26.90;38.62;99840.21;125971;1093;113933;-72
2021/07/30 08:53:22;;;;;;;0.40;0.00;;;;;;;26.91;37.07;99837.34;126072;1093;103015;-73
2021/07/30 08:55:50;;;;;;;0.40;0.00;;;;;;;27.08;37.94;99832.81;125987;1095;113891;-72
2021/07/30 08:58:17;;;;;;;0.40;0.00;;;;;;;27.24;37.53;99839.41;126178;1093;103019;-70
2021/07/30 09:00:45;;;;;;;0.40;0.00;;;;;;;27.36;37.32;99832.63;126076;1093;103477;-72
2021/07/30 09:03:12;;;;;;;0.40;0.00;;;;;;;27.35;36.50;99822.70;125973;1093;113995;-73
2021/07/30 09:05:40;;;;;;;0.40;0.00;;;;;;;27.45;36.14;99828.10;126107;1092;102898;-72
2021/07/30 09:08:08;;;;;;;0.40;0.00;;;;;;;27.52;37.00;99820.94;125956;1093;113925;-74
2021/07/30 09:10:41;;;;;;;0.40;0.00;;;;;;;27.71;36.87;99819.83;126074;1093;101741;-72
2021/07/30 09:13:24;;;;;;;0.40;0.00;;;;;;;27.78;35.53;99818.13;125925;1095;114562;-73
2021/07/30 09:16:07;;;;;;;0.40;0.00;;;;;;;27.78;34.59;99815.39;126043;1094;103761;-72
2021/07/30 09:18:37;;;;;;;0.40;0.00;;;;;;;27.88;35.69;99812.50;126061;1093;103120;-73
2021/07/30 09:21:32;;;;;;;0.40;0.00;;;;;;;28.04;34.25;99811.71;126015;1093;113925;-72
2021/07/30 09:24:05;;;;;;;0.40;0.00;;;;;;;28.13;34.92;99812.59;126082;1093;102989;-72
2021/07/30 09:26:33;;;;;;;0.40;0.00;;;;;;;28.60;33.98;99819.28;125980;1092;113923;-72
2021/07/30 09:29:04;;;;;;;0.40;0.00;;;;;;;29.16;32.99;99817.52;126103;1093;103502;-72
2021/07/30 09:31:54;;;;;;;0.40;0.00;;;;;;;29.65;33.00;99818.38;126034;1093;114120;-72
2021/07/30 09:34:30;;;;;;;0.40;0.00;;;;;;;30.92;30.75;99820.73;126089;1093;103493;-72
2021/07/30 09:37:18;;;;;;;0.40;0.00;;;;;;;32.04;29.51;99805.10;125970;1092;114119;-71
2021/07/30 09:39:50;;;;;;;0.40;0.00;;;;;;;33.32;27.68;99813.45;126101;1096;103238;-72
2021/07/30 09:42:20;;;;;;;0.40;0.00;;;;;;;34.00;25.17;99807.16;126097;1093;102890;-72
2021/07/30 09:44:56;;;;;;;0.40;0.00;;;;;;;34.04;25.96;99807.58;125966;1092;114355;-72
2021/07/30 09:47:34;;;;;;;0.40;0.00;;;;;;;34.18;25.10;99797.42;126065;1092;103030;-72
2021/07/30 09:50:07;;;;;;;0.40;0.00;;;;;;;34.92;23.86;99812.17;126016;1096;113909;-72
2021/07/30 09:52:36;;;;;;;0.40;0.00;;;;;;;35.59;24.17;99797.30;127189;1096;100875;-73
2021/07/30 09:55:07;;;;;;;0.40;0.00;;;;;;;36.29;22.28;99794.56;125977;1093;114096;-72
2021/07/30 09:57:35;;;;;;;0.40;0.00;;;;;;;36.59;23.03;99793.95;126062;1093;102906;-72
2021/07/30 10:00:06;;;;;;;0.40;0.00;;;;;;;36.72;22.87;99792.13;126351;1093;103191;-73
2021/07/30 10:02:38;;;;;;;0.40;0.00;;;;;;;37.48;21.87;99785.38;125978;1093;113920;-73
2021/07/30 10:05:10;;;;;;;0.40;0.00;;;;;;;38.23;21.10;99785.20;126381;1093;102913;-73
2021/07/30 10:07:38;;;;;;;0.40;0.00;;;;;;;38.20;20.28;99782.91;125981;1093;114068;-73
2021/07/30 10:10:10;;;;;;;0.40;0.00;;;;;;;38.05;20.47;99786.14;126127;1093;103125;-73
2021/07/30 10:12:43;;;;;;;0.40;0.00;;;;;;;38.45;19.77;99785.53;126131;1096;103244;-72
2021/07/30 10:15:10;;;;;;;0.40;0.00;;;;;;;38.73;18.90;99787.63;126612;1095;114222;-73
2021/07/30 10:17:42;;;;;;;0.40;0.00;;;;;;;38.39;19.46;99778.13;126113;1092;102929;-72
2021/07/30 10:20:11;;;;;;;0.40;0.00;;;;;;;38.43;19.24;99766.30;126017;1093;114555;-73
2021/07/30 10:22:50;;;;;;;0.40;0.00;;;;;;;38.58;19.29;99765.82;126294;1095;103019;-73
2021/07/30 10:25:22;;;;;;;0.40;0.00;;;;;;;39.00;18.94;99770.43;125991;1095;114065;-73
2021/07/30 10:27:54;;;;;;;0.40;0.00;;;;;;;39.04;19.33;99760.52;126111;1093;102885;-73
2021/07/30 10:30:22;;;;;;;0.40;0.00;;;;;;;39.25;17.91;99756.25;126163;1093;102877;-72
2021/07/30 10:32:56;;;;;;;0.40;0.00;;;;;;;39.27;18.04;99762.44;125981;1095;114043;-71
2021/07/30 10:35:26;;;;;;;0.40;0.00;;;;;;;39.43;17.78;99746.89;126116;1092;103058;-71
2021/07/30 10:38:17;;;;;;;0.40;0.00;;;;;;;39.72;17.51;99763.66;125928;1094;113960;-72
2021/07/30 10:41:07;;;;;;;0.40;0.00;;;;;;;40.19;17.64;99744.98;126148;1095;103096;-74
2021/07/30 10:43:50;;;;;;;0.40;0.00;;;;;;;40.56;16.88;99748.17;126001;1092;114170;-74
2021/07/30 10:46:18;;;;;;;0.40;0.00;;;;;;;40.10;17.83;99753.78;126085;1093;103025;-75
2021/07/30 10:48:55;;;;;;;0.40;0.00;;;;;;;39.76;17.48;99745.34;126544;1093;102903;-74
2021/07/30 10:51:25;;;;;;;0.40;0.00;;;;;;;38.34;18.37;99742.70;126046;1093;114597;-75
2021/07/30 10:53:58;;;;;;;0.40;0.00;;;;;;;38.55;18.79;99740.41;126095;1095;102975;-76
2021/07/30 10:56:29;;;;;;;0.40;0.00;;;;;;;38.55;18.34;99746.84;126010;1092;114330;-75
2021/07/30 10:58:59;;;;;;;0.40;0.00;;;;;;;38.38;18.12;99729.17;126057;1093;102899;-75
2021/07/30 11:01:29;;;;;;;0.40;0.00;;;;;;;38.40;19.25;99736.19;126052;1096;114559;-75
2021/07/30 11:03:58;;;;;;;0.40;0.00;;;;;;;38.17;18.95;99736.12;126102;1092;102961;-74
2021/07/30 11:06:30;;;;;;;0.40;0.00;;;;;;;36.79;20.39;99735.48;126677;1093;102900;-75
2021/07/30 11:09:06;;;;;;;0.40;0.00;;;;;;;35.62;20.99;99735.94;125974;1093;113957;-75
2021/07/30 11:12:07;;;;;;;0.40;0.00;;;;;;;34.76;21.74;99735.98;126106;1091;102993;-74
2021/07/30 11:14:40;;;;;;;0.40;0.00;;;;;;;33.82;22.99;99727.63;125941;1093;114040;-74
2021/07/30 11:17:12;;;;;;;0.40;0.00;;;;;;;33.12;24.85;99725.02;126046;1095;103004;-74
2021/07/30 11:19:46;;;;;;;0.40;0.00;;;;;;;32.78;25.29;99728.64;125990;1095;113024;-73
2021/07/30 11:22:19;;;;;;;0.40;0.00;;;;;;;32.38;25.42;99726.41;126074;1092;103422;-74
2021/07/30 11:24:51;;;;;;;0.40;0.00;;;;;;;31.92;26.85;99708.36;126113;1093;103056;-74